createdAt,value
2016-11-18T00:00:11.714Z,0
2016-11-18T00:00:52.395Z,0
2016-11-18T00:01:33.007Z,0
2016-11-18T00:02:13.762Z,0
2016-11-18T00:02:54.368Z,0
2016-11-18T00:03:35.194Z,0
2016-11-18T00:04:15.957Z,0
2016-11-18T00:04:56.620Z,0
2016-11-18T00:05:37.285Z,0
2016-11-18T00:06:17.918Z,0
2016-11-18T00:06:58.568Z,0
2016-11-18T00:07:39.194Z,0
2016-11-18T00:08:19.917Z,0
2016-11-18T00:09:00.482Z,0
2016-11-18T00:09:41.090Z,0
2016-11-18T00:10:21.776Z,0
2016-11-18T00:11:02.428Z,0
2016-11-18T00:11:43.132Z,0
2016-11-18T00:12:23.775Z,0
2016-11-18T00:13:04.477Z,0
2016-11-18T00:13:45.042Z,0
2016-11-18T00:14:25.627Z,0
2016-11-18T00:15:06.229Z,0
2016-11-18T00:15:46.803Z,0
2016-11-18T00:16:27.381Z,0
2016-11-18T00:17:08.111Z,0
2016-11-18T00:17:48.709Z,0
2016-11-18T00:18:29.355Z,0
2016-11-18T00:19:10.052Z,0
2016-11-18T00:19:50.707Z,0
2016-11-18T00:20:31.365Z,0
2016-11-18T00:21:12.017Z,0
2016-11-18T00:21:52.593Z,0
2016-11-18T00:22:33.215Z,0
2016-11-18T00:23:13.871Z,0
2016-11-18T00:23:55.307Z,0
2016-11-18T00:24:35.976Z,0
2016-11-18T00:25:16.527Z,0
2016-11-18T00:25:57.247Z,0
2016-11-18T00:26:37.861Z,0
2016-11-18T00:27:18.497Z,0
2016-11-18T00:27:59.111Z,0
2016-11-18T00:28:39.707Z,0
2016-11-18T00:29:20.412Z,0
2016-11-18T00:30:01.014Z,0
2016-11-18T00:30:41.730Z,0
2016-11-18T00:31:22.392Z,0
2016-11-18T00:32:03.076Z,0
2016-11-18T00:32:43.679Z,0
2016-11-18T00:33:24.324Z,0
2016-11-18T00:34:04.966Z,0
2016-11-18T00:34:45.598Z,0
2016-11-18T00:35:26.240Z,0
2016-11-18T00:36:06.906Z,0
2016-11-18T00:36:47.588Z,0
2016-11-18T00:37:28.246Z,0
2016-11-18T00:38:09.016Z,0
2016-11-18T00:38:49.604Z,0
2016-11-18T00:39:30.342Z,0
2016-11-18T00:40:10.988Z,0
2016-11-18T00:40:51.755Z,0
2016-11-18T00:41:32.377Z,0
2016-11-18T00:42:13.178Z,0
2016-11-18T00:42:53.784Z,0
2016-11-18T00:43:34.427Z,0
2016-11-18T00:44:15.091Z,0
2016-11-18T00:44:55.694Z,0
2016-11-18T00:45:36.425Z,0
2016-11-18T00:46:17.048Z,0
2016-11-18T00:46:57.655Z,0
2016-11-18T00:47:38.341Z,0
2016-11-18T00:48:19.056Z,0
2016-11-18T00:48:59.669Z,0
2016-11-18T00:49:40.353Z,0
2016-11-18T00:50:21.119Z,0
2016-11-18T00:51:01.715Z,0
2016-11-18T00:51:42.413Z,0
2016-11-18T00:52:23.146Z,0
2016-11-18T00:53:03.805Z,0
2016-11-18T00:53:44.480Z,0
2016-11-18T00:54:25.117Z,0
2016-11-18T00:55:05.739Z,0
2016-11-18T00:55:46.315Z,0
2016-11-18T00:56:27.009Z,0
2016-11-18T00:57:07.606Z,0
2016-11-18T00:57:48.202Z,0
2016-11-18T00:58:28.772Z,0
2016-11-18T00:59:09.438Z,0
2016-11-18T00:59:50.099Z,0
2016-11-18T01:00:30.794Z,0
2016-11-18T01:01:11.782Z,0
2016-11-18T01:01:52.670Z,0
2016-11-18T01:02:33.417Z,0
2016-11-18T01:03:14.192Z,0
2016-11-18T01:03:54.958Z,0
2016-11-18T01:04:35.826Z,0
2016-11-18T01:05:16.608Z,0
2016-11-18T01:05:57.388Z,0
2016-11-18T01:06:38.410Z,0
2016-11-18T01:07:19.218Z,0
2016-11-18T01:07:59.904Z,0
2016-11-18T01:08:40.650Z,0
2016-11-18T01:09:21.386Z,0
2016-11-18T01:12:30.749Z,0
2016-11-18T01:13:15.622Z,0
2016-11-18T01:14:00.017Z,0
2016-11-18T01:14:41.016Z,0
2016-11-18T01:15:22.366Z,0
2016-11-18T01:16:03.944Z,0
2016-11-18T01:16:46.647Z,0
2016-11-18T01:17:27.728Z,0
2016-11-18T01:18:08.652Z,0
2016-11-18T01:18:49.717Z,0
2016-11-18T01:19:30.729Z,0
2016-11-18T01:20:11.711Z,0
2016-11-18T01:20:52.616Z,0
2016-11-18T01:21:33.461Z,0
2016-11-18T01:22:14.706Z,0
2016-11-18T01:22:55.757Z,0
2016-11-18T01:23:36.740Z,0
2016-11-18T01:24:17.542Z,0
2016-11-18T01:24:59.301Z,0
2016-11-18T01:25:42.903Z,0
2016-11-18T01:26:23.736Z,0
2016-11-18T01:27:04.609Z,0
2016-11-18T01:27:45.436Z,0
2016-11-18T01:28:26.475Z,0
2016-11-18T01:29:07.381Z,0
2016-11-18T01:29:48.319Z,0
2016-11-18T01:30:29.210Z,0
2016-11-18T01:31:10.118Z,0
2016-11-18T01:31:51.117Z,0
2016-11-18T01:32:31.947Z,0
2016-11-18T01:33:12.803Z,0
2016-11-18T01:33:53.719Z,0
2016-11-18T01:34:34.795Z,0
2016-11-18T01:35:15.829Z,0
2016-11-18T01:35:56.754Z,0
2016-11-18T01:36:38.526Z,0
2016-11-18T01:37:19.451Z,0
2016-11-18T01:38:00.504Z,0
2016-11-18T01:38:41.597Z,0
2016-11-18T01:39:22.607Z,0
2016-11-18T01:40:03.549Z,0
2016-11-18T01:40:44.611Z,0
2016-11-18T01:41:25.599Z,0
2016-11-18T01:42:06.576Z,0
2016-11-18T01:42:47.636Z,0
2016-11-18T01:43:28.663Z,0
2016-11-18T01:44:09.749Z,0
2016-11-18T01:44:50.661Z,0
2016-11-18T01:45:31.573Z,0
2016-11-18T01:46:12.535Z,0
2016-11-18T01:46:53.528Z,0
2016-11-18T01:47:34.592Z,0
2016-11-18T01:48:15.663Z,0
2016-11-18T01:48:56.722Z,0
2016-11-18T01:49:37.726Z,0
2016-11-18T01:50:18.654Z,0
2016-11-18T01:50:59.599Z,0
2016-11-18T01:51:40.476Z,0
2016-11-18T01:52:21.546Z,0
2016-11-18T01:53:02.666Z,0
2016-11-18T01:53:43.745Z,0
2016-11-18T01:54:24.801Z,0
2016-11-18T01:55:06.144Z,0
2016-11-18T01:55:47.327Z,0
2016-11-18T01:56:28.547Z,0
2016-11-18T01:57:09.622Z,0
2016-11-18T01:57:50.793Z,0
2016-11-18T01:58:31.827Z,0
2016-11-18T01:59:12.984Z,0
2016-11-18T01:59:54.137Z,0
2016-11-18T02:00:35.147Z,0
2016-11-18T02:01:16.120Z,0
2016-11-18T02:01:57.014Z,0
2016-11-18T02:02:38.466Z,0
2016-11-18T02:03:19.802Z,0
2016-11-18T02:04:00.678Z,0
2016-11-18T02:04:42.204Z,0
2016-11-18T02:05:23.671Z,0
2016-11-18T02:06:04.666Z,0
2016-11-18T02:06:45.759Z,0
2016-11-18T02:07:26.840Z,0
2016-11-18T02:08:07.886Z,0
2016-11-18T02:08:48.789Z,0
2016-11-18T02:09:29.937Z,0
2016-11-18T02:10:10.939Z,0
2016-11-18T02:10:51.944Z,0
2016-11-18T02:11:33.053Z,0
2016-11-18T02:12:14.137Z,0
2016-11-18T02:12:55.221Z,0
2016-11-18T02:13:36.231Z,0
2016-11-18T02:14:17.231Z,0
2016-11-18T02:14:58.639Z,0
2016-11-18T02:15:39.361Z,0
2016-11-18T02:16:20.651Z,0
2016-11-18T02:17:01.805Z,0
2016-11-18T02:17:42.957Z,0
2016-11-18T02:18:23.873Z,0
2016-11-18T02:19:04.984Z,0
2016-11-18T02:19:46.174Z,0
2016-11-18T02:20:27.151Z,0
2016-11-18T02:21:08.207Z,0
2016-11-18T02:21:49.362Z,0
2016-11-18T02:22:30.544Z,0
2016-11-18T02:23:11.636Z,0
2016-11-18T02:23:52.708Z,0
2016-11-18T02:24:33.781Z,0
2016-11-18T02:25:14.856Z,0
2016-11-18T02:25:55.968Z,0
2016-11-18T02:26:37.163Z,0
2016-11-18T02:27:18.583Z,0
2016-11-18T02:27:59.495Z,0
2016-11-18T02:28:40.580Z,0
2016-11-18T02:29:21.616Z,0
2016-11-18T02:30:02.547Z,0
2016-11-18T02:30:43.596Z,0
2016-11-18T02:31:24.494Z,0
2016-11-18T02:32:05.494Z,0
2016-11-18T02:32:46.556Z,0
2016-11-18T02:33:27.605Z,0
2016-11-18T02:34:08.885Z,0
2016-11-18T02:34:50.587Z,0
2016-11-18T02:35:31.018Z,0
2016-11-18T02:36:12.210Z,0
2016-11-18T02:36:53.568Z,0
2016-11-18T02:37:34.655Z,0
2016-11-18T02:38:15.789Z,0
2016-11-18T02:38:56.795Z,0
2016-11-18T02:39:38.096Z,0
2016-11-18T02:40:19.168Z,0
2016-11-18T02:41:00.257Z,0
2016-11-18T02:41:41.338Z,0
2016-11-18T02:42:22.322Z,0
2016-11-18T02:43:03.304Z,0
2016-11-18T02:43:44.387Z,0
2016-11-18T02:44:25.653Z,0
2016-11-18T02:45:06.623Z,0
2016-11-18T02:45:47.734Z,0
2016-11-18T02:46:28.887Z,0
2016-11-18T02:47:10.107Z,0
2016-11-18T02:47:51.260Z,0
2016-11-18T02:48:32.220Z,0
2016-11-18T02:49:13.587Z,0
2016-11-18T02:49:54.657Z,0
2016-11-18T02:50:35.544Z,0
2016-11-18T02:51:16.462Z,0
2016-11-18T02:51:57.321Z,0
2016-11-18T02:52:38.209Z,0
2016-11-18T02:53:19.316Z,0
2016-11-18T02:54:00.113Z,0
2016-11-18T02:54:41.084Z,0
2016-11-18T02:55:22.123Z,0
2016-11-18T02:56:03.130Z,0
2016-11-18T02:56:44.449Z,0
2016-11-18T02:57:25.544Z,0
2016-11-18T02:58:06.562Z,0
2016-11-18T02:58:47.593Z,0
2016-11-18T02:59:28.760Z,0
2016-11-18T03:00:09.850Z,0
2016-11-18T03:00:50.789Z,0
2016-11-18T03:01:31.765Z,0
2016-11-18T03:02:12.748Z,0
2016-11-18T03:02:53.674Z,0
2016-11-18T03:03:34.614Z,0
2016-11-18T03:04:15.658Z,0
2016-11-18T03:04:57.633Z,0
2016-11-18T03:05:39.692Z,0
2016-11-18T03:06:20.626Z,0
2016-11-18T03:07:01.824Z,0
2016-11-18T03:07:43.032Z,0
2016-11-18T03:08:24.132Z,0
2016-11-18T03:09:05.129Z,0
2016-11-18T03:09:47.094Z,0
2016-11-18T03:10:28.321Z,0
2016-11-18T03:11:09.647Z,0
2016-11-18T03:11:50.968Z,0
2016-11-18T03:12:32.066Z,0
2016-11-18T03:13:13.098Z,0
2016-11-18T03:13:54.145Z,0
2016-11-18T03:14:35.148Z,0
2016-11-18T03:15:16.269Z,0
2016-11-18T03:15:57.280Z,0
2016-11-18T03:16:38.318Z,0
2016-11-18T03:17:19.257Z,0
2016-11-18T03:18:00.491Z,0
2016-11-18T03:18:41.417Z,0
2016-11-18T03:19:22.555Z,0
2016-11-18T03:20:03.538Z,0
2016-11-18T03:20:44.603Z,0
2016-11-18T03:21:25.653Z,0
2016-11-18T03:22:06.605Z,0
2016-11-18T03:22:47.616Z,0
2016-11-18T03:23:28.624Z,0
2016-11-18T03:24:09.689Z,0
2016-11-18T03:24:50.662Z,0
2016-11-18T03:25:31.773Z,0
2016-11-18T03:26:12.834Z,0
2016-11-18T03:26:53.833Z,0
2016-11-18T03:27:34.684Z,0
2016-11-18T03:28:15.903Z,0
2016-11-18T03:28:56.756Z,0
2016-11-18T03:29:38.152Z,0
2016-11-18T03:30:19.342Z,0
2016-11-18T03:31:00.291Z,0
2016-11-18T03:31:41.399Z,0
2016-11-18T03:32:22.407Z,0
2016-11-18T03:33:03.423Z,0
2016-11-18T03:33:44.362Z,0
2016-11-18T03:34:25.620Z,0
2016-11-18T03:35:06.571Z,0
2016-11-18T03:35:47.742Z,0
2016-11-18T03:36:28.766Z,0
2016-11-18T03:37:09.600Z,0
2016-11-18T03:37:50.637Z,0
2016-11-18T03:38:31.746Z,0
2016-11-18T03:39:12.833Z,0
2016-11-18T03:39:53.748Z,0
2016-11-18T03:40:34.695Z,0
2016-11-18T03:41:15.712Z,0
2016-11-18T03:41:56.689Z,0
2016-11-18T03:42:37.801Z,0
2016-11-18T03:43:18.743Z,0
2016-11-18T03:43:59.719Z,0
2016-11-18T03:44:40.654Z,0
2016-11-18T03:45:21.641Z,0
2016-11-18T03:46:02.612Z,0
2016-11-18T03:46:43.610Z,0
2016-11-18T03:47:24.678Z,0
2016-11-18T03:48:05.721Z,0
2016-11-18T03:48:46.582Z,0
2016-11-18T03:49:27.475Z,0
2016-11-18T03:50:08.516Z,0
2016-11-18T03:50:49.484Z,0
2016-11-18T03:51:30.399Z,0
2016-11-18T03:52:11.631Z,0
2016-11-18T03:52:52.893Z,0
2016-11-18T03:53:34.076Z,0
2016-11-18T03:54:15.242Z,0
2016-11-18T03:54:56.282Z,0
2016-11-18T03:55:37.297Z,0
2016-11-18T03:56:18.227Z,0
2016-11-18T03:56:59.365Z,0
2016-11-18T03:57:40.369Z,0
2016-11-18T03:58:21.638Z,0
2016-11-18T03:59:02.715Z,0
2016-11-18T03:59:43.769Z,0
2016-11-18T04:00:24.658Z,0
2016-11-18T04:01:05.924Z,0
2016-11-18T04:01:46.986Z,0
2016-11-18T04:02:28.220Z,0
2016-11-18T04:03:09.260Z,0
2016-11-18T04:03:50.178Z,0
2016-11-18T04:04:31.156Z,0
2016-11-18T04:05:12.120Z,0
2016-11-18T04:05:53.178Z,0
2016-11-18T04:06:34.133Z,0
2016-11-18T04:07:15.198Z,0
2016-11-18T04:07:56.438Z,0
2016-11-18T04:08:37.499Z,0
2016-11-18T04:09:18.629Z,0
2016-11-18T04:09:59.660Z,0
2016-11-18T04:10:40.997Z,0
2016-11-18T04:11:22.085Z,0
2016-11-18T04:12:03.149Z,0
2016-11-18T04:12:44.339Z,0
2016-11-18T04:13:25.266Z,0
2016-11-18T04:14:06.310Z,0
2016-11-18T04:14:47.314Z,0
2016-11-18T04:15:28.435Z,0
2016-11-18T04:16:09.457Z,0
2016-11-18T04:16:50.567Z,0
2016-11-18T04:17:31.615Z,0
2016-11-18T04:18:12.824Z,0
2016-11-18T04:18:54.005Z,0
2016-11-18T04:19:35.052Z,0
2016-11-18T04:20:16.181Z,0
2016-11-18T04:20:57.384Z,0
2016-11-18T04:21:38.555Z,0
2016-11-18T04:22:19.575Z,0
2016-11-18T04:23:00.743Z,0
2016-11-18T04:23:41.720Z,0
2016-11-18T04:24:23.138Z,0
2016-11-18T04:25:04.741Z,0
2016-11-18T04:25:46.031Z,0
2016-11-18T04:26:27.436Z,0
2016-11-18T04:27:08.489Z,0
2016-11-18T04:27:49.436Z,0
2016-11-18T04:28:30.488Z,0
2016-11-18T04:29:11.586Z,0
2016-11-18T04:29:52.859Z,0
2016-11-18T04:30:33.905Z,0
2016-11-18T04:31:15.172Z,0
2016-11-18T04:31:56.342Z,0
2016-11-18T04:32:37.430Z,0
2016-11-18T04:33:18.495Z,0
2016-11-18T04:33:59.635Z,0
2016-11-18T04:34:40.782Z,0
2016-11-18T04:35:21.935Z,0
2016-11-18T04:36:03.025Z,0
2016-11-18T04:36:44.108Z,0
2016-11-18T04:37:25.269Z,0
2016-11-18T04:38:06.225Z,0
2016-11-18T04:38:47.370Z,0
2016-11-18T04:39:28.441Z,0
2016-11-18T04:40:09.596Z,0
2016-11-18T04:40:50.653Z,0
2016-11-18T04:41:31.601Z,0
2016-11-18T04:42:12.681Z,0
2016-11-18T04:42:53.720Z,0
2016-11-18T04:43:34.776Z,0
2016-11-18T04:44:16.667Z,0
2016-11-18T04:44:57.677Z,0
2016-11-18T04:45:38.788Z,0
2016-11-18T04:46:19.815Z,0
2016-11-18T04:47:00.869Z,0
2016-11-18T04:47:41.926Z,0
2016-11-18T04:48:22.993Z,0
2016-11-18T04:49:04.161Z,0
2016-11-18T04:49:45.105Z,0
2016-11-18T04:50:26.162Z,0
2016-11-18T04:51:07.266Z,0
2016-11-18T04:51:48.283Z,0
2016-11-18T04:52:32.154Z,0
2016-11-18T04:53:15.037Z,0
2016-11-18T04:53:58.868Z,0
2016-11-18T04:54:41.899Z,0
2016-11-18T04:55:25.302Z,0
2016-11-18T04:56:06.292Z,0
2016-11-18T04:56:47.435Z,0
2016-11-18T04:57:28.537Z,0
2016-11-18T04:58:09.775Z,0
2016-11-18T04:58:50.814Z,0
2016-11-18T04:59:32.037Z,0
2016-11-18T05:00:13.261Z,0
2016-11-18T05:00:54.795Z,0
2016-11-18T05:01:35.925Z,0
2016-11-18T05:02:17.011Z,0
2016-11-18T05:02:58.168Z,0
2016-11-18T05:03:39.113Z,0
2016-11-18T05:04:20.120Z,0
2016-11-18T05:05:01.188Z,0
2016-11-18T05:05:42.101Z,0
2016-11-18T05:06:23.205Z,0
2016-11-18T05:07:04.193Z,0
2016-11-18T05:07:45.161Z,0
2016-11-18T05:08:26.117Z,0
2016-11-18T05:09:07.157Z,0
2016-11-18T05:09:48.238Z,0
2016-11-18T05:10:30.322Z,0
2016-11-18T05:11:11.502Z,0
2016-11-18T05:11:52.580Z,0
2016-11-18T05:12:33.696Z,0
2016-11-18T05:14:47.518Z,0
2016-11-18T05:15:28.899Z,0
2016-11-18T05:16:09.300Z,0
2016-11-18T05:16:50.327Z,0
2016-11-18T05:17:31.215Z,0
2016-11-18T05:18:12.220Z,0
2016-11-18T05:18:53.071Z,0
2016-11-18T05:19:34.209Z,0
2016-11-18T05:20:15.381Z,0
2016-11-18T05:20:56.297Z,0
2016-11-18T05:21:37.599Z,0
2016-11-18T05:22:18.549Z,0
2016-11-18T05:22:59.610Z,0
2016-11-18T05:23:40.755Z,0
2016-11-18T05:24:21.553Z,0
2016-11-18T05:25:02.459Z,0
2016-11-18T05:25:43.468Z,0
2016-11-18T05:26:24.508Z,0
2016-11-18T05:27:05.498Z,0
2016-11-18T05:27:46.578Z,0
2016-11-18T05:28:27.588Z,0
2016-11-18T05:29:08.508Z,0
2016-11-18T05:29:49.408Z,0
2016-11-18T05:30:30.384Z,0
2016-11-18T05:31:11.749Z,0
2016-11-18T05:31:52.824Z,0
2016-11-18T05:32:33.748Z,0
2016-11-18T05:33:14.767Z,0
2016-11-18T05:33:55.870Z,0
2016-11-18T05:34:36.971Z,0
2016-11-18T05:35:18.010Z,0
2016-11-18T05:35:58.991Z,0
2016-11-18T05:36:40.269Z,0
2016-11-18T05:37:21.192Z,0
2016-11-18T05:38:02.278Z,0
2016-11-18T05:38:43.300Z,0
2016-11-18T05:39:24.354Z,0
2016-11-18T05:40:05.517Z,0
2016-11-18T05:40:46.628Z,0
2016-11-18T05:41:27.645Z,0
2016-11-18T05:42:08.764Z,0
2016-11-18T05:42:49.672Z,0
2016-11-18T05:43:30.763Z,0
2016-11-18T05:44:11.865Z,0
2016-11-18T05:44:53.005Z,0
2016-11-18T05:45:34.370Z,0
2016-11-18T05:46:15.542Z,0
2016-11-18T05:46:56.457Z,0
2016-11-18T05:47:37.415Z,0
2016-11-18T05:48:18.555Z,0
2016-11-18T05:48:59.892Z,0
2016-11-18T05:49:41.091Z,0
2016-11-18T05:50:22.189Z,0
2016-11-18T05:51:03.466Z,0
2016-11-18T05:51:44.576Z,0
2016-11-18T05:52:26.904Z,0
2016-11-18T05:53:07.245Z,0
2016-11-18T05:53:48.258Z,0
2016-11-18T05:54:29.335Z,0
2016-11-18T05:55:10.279Z,0
2016-11-18T05:55:51.380Z,0
2016-11-18T05:56:32.537Z,0
2016-11-18T05:57:14.250Z,0
2016-11-18T05:57:55.914Z,0
2016-11-18T05:58:37.177Z,0
2016-11-18T05:59:18.255Z,0
2016-11-18T05:59:59.305Z,0
2016-11-18T06:00:40.542Z,0
2016-11-18T06:01:21.498Z,0
2016-11-18T06:02:02.692Z,0
2016-11-18T06:02:43.685Z,0
2016-11-18T06:03:24.802Z,0
2016-11-18T06:04:05.872Z,0
2016-11-18T06:04:46.923Z,0
2016-11-18T06:05:28.141Z,0
2016-11-18T06:06:09.159Z,0
2016-11-18T06:06:50.428Z,0
2016-11-18T06:07:31.475Z,0
2016-11-18T06:08:12.471Z,0
2016-11-18T06:08:54.375Z,0
2016-11-18T06:09:35.361Z,0
2016-11-18T06:10:16.568Z,0
2016-11-18T06:10:57.576Z,0
2016-11-18T06:11:38.651Z,0
2016-11-18T06:12:19.757Z,0
2016-11-18T06:13:00.953Z,0
2016-11-18T06:13:41.988Z,0
2016-11-18T06:14:23.011Z,0
2016-11-18T06:15:04.049Z,0
2016-11-18T06:15:45.119Z,0
2016-11-18T06:16:26.181Z,0
2016-11-18T06:17:07.285Z,0
2016-11-18T06:17:48.260Z,0
2016-11-18T06:18:29.376Z,0
2016-11-18T06:19:10.612Z,0
2016-11-18T06:19:51.571Z,0
2016-11-18T06:20:32.685Z,0
2016-11-18T06:21:13.603Z,0
2016-11-18T06:21:54.797Z,0
2016-11-18T06:22:35.718Z,0
2016-11-18T06:23:16.713Z,0
2016-11-18T06:23:57.643Z,0
2016-11-18T06:24:38.759Z,0
2016-11-18T06:25:19.739Z,0
2016-11-18T06:26:00.757Z,0
2016-11-18T06:26:42.008Z,0
2016-11-18T06:27:22.995Z,0
2016-11-18T06:28:04.061Z,4
2016-11-18T06:28:45.051Z,4
2016-11-18T06:29:29.014Z,4
2016-11-18T06:30:16.912Z,0
2016-11-18T06:30:58.926Z,4
2016-11-18T06:31:39.760Z,4
2016-11-18T06:32:21.301Z,8
2016-11-18T06:33:03.003Z,4
2016-11-18T06:33:48.899Z,8
2016-11-18T06:34:29.203Z,12
2016-11-18T06:35:10.121Z,12
2016-11-18T06:35:51.340Z,12
2016-11-18T06:36:32.500Z,16
2016-11-18T06:37:13.484Z,16
2016-11-18T06:37:54.623Z,16
2016-11-18T06:38:35.803Z,20
2016-11-18T06:39:16.844Z,24
2016-11-18T06:39:57.823Z,28
2016-11-18T06:40:38.829Z,32
2016-11-18T06:41:19.832Z,32
2016-11-18T06:42:00.790Z,36
2016-11-18T06:42:41.869Z,36
2016-11-18T06:43:22.863Z,40
2016-11-18T06:44:03.973Z,48
2016-11-18T06:44:44.763Z,52
2016-11-18T06:45:25.787Z,56
2016-11-18T06:46:06.736Z,60
2016-11-18T06:46:47.882Z,64
2016-11-18T06:47:28.970Z,68
2016-11-18T06:48:09.967Z,76
2016-11-18T06:48:51.161Z,80
2016-11-18T06:49:32.261Z,88
2016-11-18T06:50:13.496Z,92
2016-11-18T06:50:54.616Z,100
2016-11-18T06:51:35.660Z,104
2016-11-18T06:52:16.778Z,108
2016-11-18T06:52:57.797Z,112
2016-11-18T06:53:38.969Z,116
2016-11-18T06:54:19.988Z,132
2016-11-18T06:55:00.847Z,140
2016-11-18T06:55:42.058Z,152
2016-11-18T06:56:23.061Z,156
2016-11-18T06:57:04.276Z,168
2016-11-18T06:57:45.366Z,176
2016-11-18T06:58:27.264Z,184
2016-11-18T06:59:08.328Z,196
2016-11-18T06:59:49.601Z,204
2016-11-18T07:00:30.687Z,216
2016-11-18T07:01:11.708Z,224
2016-11-18T07:01:52.853Z,228
2016-11-18T07:02:33.890Z,240
2016-11-18T07:03:14.945Z,244
2016-11-18T07:03:56.069Z,252
2016-11-18T07:04:37.154Z,260
2016-11-18T07:05:18.371Z,260
2016-11-18T07:05:59.354Z,252
2016-11-18T07:06:40.315Z,240
2016-11-18T07:07:21.332Z,228
2016-11-18T07:08:02.542Z,228
2016-11-18T07:08:43.534Z,240
2016-11-18T07:09:24.640Z,248
2016-11-18T07:10:05.916Z,260
2016-11-18T07:10:47.030Z,284
2016-11-18T07:11:28.057Z,300
2016-11-18T07:12:09.091Z,312
2016-11-18T07:12:50.358Z,332
2016-11-18T07:13:31.429Z,344
2016-11-18T07:14:12.458Z,356
2016-11-18T07:14:53.377Z,368
2016-11-18T07:15:34.276Z,372
2016-11-18T07:16:15.353Z,376
2016-11-18T07:16:56.227Z,360
2016-11-18T07:17:37.115Z,336
2016-11-18T07:18:18.078Z,308
2016-11-18T07:18:58.992Z,296
2016-11-18T07:19:39.833Z,288
2016-11-18T07:20:20.872Z,296
2016-11-18T07:21:01.996Z,304
2016-11-18T07:21:43.120Z,312
2016-11-18T07:22:24.167Z,332
2016-11-18T07:23:05.151Z,356
2016-11-18T07:23:46.106Z,372
2016-11-18T07:24:27.149Z,372
2016-11-18T07:25:08.079Z,352
2016-11-18T07:25:49.166Z,320
2016-11-18T07:26:30.076Z,312
2016-11-18T07:27:10.992Z,296
2016-11-18T07:27:51.886Z,280
2016-11-18T07:28:32.934Z,272
2016-11-18T07:29:14.031Z,268
2016-11-18T07:29:55.102Z,272
2016-11-18T07:30:35.928Z,292
2016-11-18T07:31:16.900Z,308
2016-11-18T07:31:57.839Z,328
2016-11-18T07:32:38.848Z,384
2016-11-18T07:33:19.852Z,484
2016-11-18T07:34:00.931Z,616
2016-11-18T07:34:41.944Z,744
2016-11-18T07:35:22.878Z,768
2016-11-18T07:36:03.874Z,772
2016-11-18T07:36:44.820Z,792
2016-11-18T07:37:25.908Z,776
2016-11-18T07:38:06.825Z,796
2016-11-18T07:38:47.905Z,844
2016-11-18T07:39:28.969Z,936
2016-11-18T07:40:09.948Z,976
2016-11-18T07:40:50.789Z,908
2016-11-18T07:41:31.742Z,848
2016-11-18T07:42:12.684Z,816
2016-11-18T07:42:53.678Z,788
2016-11-18T07:43:34.595Z,832
2016-11-18T07:44:15.662Z,944
2016-11-18T07:44:56.677Z,1088
2016-11-18T07:45:38.394Z,1160
2016-11-18T07:46:18.710Z,1048
2016-11-18T07:46:59.734Z,924
2016-11-18T07:47:40.669Z,1012
2016-11-18T07:48:21.620Z,1040
2016-11-18T07:49:02.623Z,1068
2016-11-18T07:49:43.562Z,1192
2016-11-18T07:50:24.621Z,1264
2016-11-18T07:51:05.569Z,1228
2016-11-18T07:51:46.518Z,1248
2016-11-18T07:52:27.600Z,1336
2016-11-18T07:53:08.454Z,1392
2016-11-18T07:53:49.490Z,1448
2016-11-18T07:54:30.401Z,1500
2016-11-18T07:55:11.301Z,1564
2016-11-18T07:55:52.297Z,1536
2016-11-18T07:56:33.170Z,1580
2016-11-18T07:57:14.307Z,1620
2016-11-18T07:57:56.334Z,1532
2016-11-18T07:58:37.357Z,1368
2016-11-18T07:59:18.441Z,1156
2016-11-18T07:59:59.449Z,1068
2016-11-18T08:00:40.576Z,972
2016-11-18T08:01:21.622Z,984
2016-11-18T08:02:02.425Z,1056
2016-11-18T08:02:43.446Z,1208
2016-11-18T08:03:24.410Z,1476
2016-11-18T08:04:05.441Z,1852
2016-11-18T08:04:46.405Z,2056
2016-11-18T08:05:27.449Z,2324
2016-11-18T08:06:08.394Z,2808
2016-11-18T08:06:49.338Z,3340
2016-11-18T08:07:30.265Z,3560
2016-11-18T08:08:11.022Z,3200
2016-11-18T08:08:51.998Z,2916
2016-11-18T08:09:33.242Z,2940
2016-11-18T08:10:14.539Z,3204
2016-11-18T08:10:55.669Z,2796
2016-11-18T08:11:36.940Z,2848
2016-11-18T08:12:18.199Z,3544
2016-11-18T08:12:59.166Z,4564
2016-11-18T08:13:40.100Z,4496
2016-11-18T08:14:21.250Z,3508
2016-11-18T08:15:02.553Z,2772
2016-11-18T08:15:43.402Z,2640
2016-11-18T08:16:24.430Z,2708
2016-11-18T08:17:05.333Z,2872
2016-11-18T08:17:46.448Z,2460
2016-11-18T08:18:27.333Z,2716
2016-11-18T08:19:08.444Z,2936
2016-11-18T08:19:49.463Z,3400
2016-11-18T08:20:30.457Z,3364
2016-11-18T08:21:11.544Z,3136
2016-11-18T08:21:52.601Z,2972
2016-11-18T08:22:33.566Z,2860
2016-11-18T08:23:14.757Z,2660
2016-11-18T08:23:55.756Z,2620
2016-11-18T08:24:36.840Z,2600
2016-11-18T08:25:18.058Z,2380
2016-11-18T08:25:59.146Z,2196
2016-11-18T08:26:40.378Z,2248
2016-11-18T08:27:21.423Z,2328
2016-11-18T08:28:02.625Z,2344
2016-11-18T08:28:43.681Z,2188
2016-11-18T08:29:24.841Z,2200
2016-11-18T08:30:05.914Z,2084
2016-11-18T08:30:46.955Z,1900
2016-11-18T08:31:28.145Z,1696
2016-11-18T08:32:09.167Z,1476
2016-11-18T08:32:50.221Z,1216
2016-11-18T08:33:31.284Z,1096
2016-11-18T08:34:12.405Z,1128
2016-11-18T08:34:53.508Z,1124
2016-11-18T08:35:35.248Z,900
2016-11-18T08:36:16.277Z,684
2016-11-18T08:36:57.251Z,564
2016-11-18T08:37:38.345Z,520
2016-11-18T08:38:19.451Z,540
2016-11-18T08:39:00.469Z,564
2016-11-18T08:39:41.437Z,616
2016-11-18T08:40:22.441Z,536
2016-11-18T08:41:03.508Z,556
2016-11-18T08:41:44.627Z,620
2016-11-18T08:42:25.629Z,620
2016-11-18T08:43:06.563Z,492
2016-11-18T08:43:47.646Z,324
2016-11-18T08:44:28.536Z,300
2016-11-18T08:45:09.485Z,372
2016-11-18T08:45:50.756Z,416
2016-11-18T08:46:31.823Z,408
2016-11-18T08:47:12.647Z,408
2016-11-18T08:47:53.701Z,408
2016-11-18T08:48:34.707Z,456
2016-11-18T08:49:15.643Z,540
2016-11-18T08:49:56.580Z,608
2016-11-18T08:50:37.411Z,660
2016-11-18T08:51:18.366Z,652
2016-11-18T08:51:59.175Z,688
2016-11-18T08:52:40.192Z,704
2016-11-18T08:53:21.127Z,716
2016-11-18T08:54:02.098Z,780
2016-11-18T08:54:42.972Z,892
2016-11-18T08:55:24.025Z,960
2016-11-18T08:56:04.984Z,1040
2016-11-18T08:56:45.977Z,1080
2016-11-18T08:57:26.922Z,1108
2016-11-18T08:58:07.944Z,1144
2016-11-18T08:58:48.885Z,1236
2016-11-18T08:59:29.937Z,1344
2016-11-18T09:00:10.866Z,1384
2016-11-18T09:00:51.813Z,1320
2016-11-18T09:01:32.752Z,1296
2016-11-18T09:02:13.915Z,1312
2016-11-18T09:02:54.879Z,1236
2016-11-18T09:03:35.911Z,1196
2016-11-18T09:04:16.828Z,1204
2016-11-18T09:04:57.849Z,1296
2016-11-18T09:05:39.133Z,1444
2016-11-18T09:06:20.100Z,1504
2016-11-18T09:07:01.735Z,1448
2016-11-18T09:07:42.562Z,1316
2016-11-18T09:08:23.639Z,1140
2016-11-18T09:09:04.583Z,996
2016-11-18T09:09:45.661Z,956
2016-11-18T09:10:26.782Z,1008
2016-11-18T09:11:07.641Z,1080
2016-11-18T09:11:48.623Z,1136
2016-11-18T09:12:29.486Z,1160
2016-11-18T09:13:10.430Z,1148
2016-11-18T09:13:51.510Z,1168
2016-11-18T09:14:32.392Z,1196
2016-11-18T09:15:13.359Z,1280
2016-11-18T09:15:54.358Z,1304
2016-11-18T09:16:35.242Z,1236
2016-11-18T09:17:16.261Z,1164
2016-11-18T09:17:57.343Z,1072
2016-11-18T09:18:39.004Z,1008
2016-11-18T09:19:20.048Z,1008
2016-11-18T09:20:00.868Z,960
2016-11-18T09:20:41.916Z,948
2016-11-18T09:21:24.392Z,1028
2016-11-18T09:23:52.155Z,1244
2016-11-18T09:24:33.140Z,1272
2016-11-18T09:25:14.341Z,1208
2016-11-18T09:25:55.339Z,1092
2016-11-18T09:26:36.290Z,1140
2016-11-18T09:27:17.062Z,1300
2016-11-18T09:27:58.052Z,1396
2016-11-18T09:28:39.088Z,1432
2016-11-18T09:29:20.058Z,1460
2016-11-18T09:30:01.059Z,1428
2016-11-18T09:30:42.066Z,1572
2016-11-18T09:31:23.263Z,1896
2016-11-18T09:32:05.111Z,1928
2016-11-18T09:32:46.091Z,1800
2016-11-18T09:33:26.954Z,1748
2016-11-18T09:34:07.847Z,1700
2016-11-18T09:34:48.931Z,1600
2016-11-18T09:35:30.005Z,1608
2016-11-18T09:36:11.039Z,1996
2016-11-18T09:36:52.468Z,2552
2016-11-18T09:37:33.482Z,2896
2016-11-18T09:38:14.611Z,3168
2016-11-18T09:38:55.619Z,3532
2016-11-18T09:39:36.806Z,3560
2016-11-18T09:40:17.788Z,3128
2016-11-18T09:40:58.914Z,2660
2016-11-18T09:41:39.929Z,2392
2016-11-18T09:42:21.143Z,2320
2016-11-18T09:43:02.263Z,2468
2016-11-18T09:43:43.181Z,2340
2016-11-18T09:44:24.227Z,2048
2016-11-18T09:45:05.435Z,1984
2016-11-18T09:45:46.468Z,2116
2016-11-18T09:46:27.422Z,2376
2016-11-18T09:47:08.272Z,2584
2016-11-18T09:47:49.328Z,2804
2016-11-18T09:48:30.345Z,3032
2016-11-18T09:49:11.263Z,3300
2016-11-18T09:49:52.187Z,3692
2016-11-18T09:50:33.145Z,4124
2016-11-18T09:51:14.250Z,4460
2016-11-18T09:51:55.327Z,5140
2016-11-18T09:52:36.429Z,6276
2016-11-18T09:53:17.379Z,7688
2016-11-18T09:53:58.335Z,9300
2016-11-18T09:54:39.373Z,10412